createdAt,value
2022-12-08T00:04:25.223Z,93514.66
2022-12-08T00:09:38.322Z,93514.66
2022-12-08T00:14:44.603Z,93487.38
2022-12-08T00:19:47.654Z,93483.28
2022-12-08T00:24:50.050Z,93483.50
2022-12-08T00:29:53.727Z,93478.19
2022-12-08T00:34:57.158Z,93462.13
2022-12-08T00:40:03.316Z,93468.84
2022-12-08T00:45:06.882Z,93451.03
2022-12-08T00:50:09.892Z,93450.72
2022-12-08T00:55:15.963Z,93450.19
2022-12-08T01:00:21.383Z,93427.28
2022-12-08T01:10:44.184Z,93397.69
2022-12-08T01:15:52.804Z,93423.63
2022-12-08T01:20:55.579Z,93401.38
2022-12-08T01:26:05.279Z,93385.84
2022-12-08T01:31:13.616Z,93411.09
2022-12-08T01:36:25.406Z,93421.25
2022-12-08T01:41:33.923Z,93409.50
2022-12-08T01:46:39.056Z,93398.56
2022-12-08T01:51:50.276Z,93394.81
2022-12-08T01:56:58.192Z,93384.50
2022-12-08T02:02:03.115Z,93395.91
2022-12-08T02:07:08.352Z,93399.34
2022-12-08T02:12:10.852Z,93380.41
2022-12-08T02:17:22.462Z,93378.75
2022-12-08T02:22:59.824Z,93378.75
2022-12-08T02:28:20.408Z,93381.53
2022-12-08T02:34:00.302Z,93381.97
2022-12-08T02:39:21.641Z,93362.72
2022-12-08T02:44:46.794Z,93336.16
2022-12-08T02:49:49.145Z,93325.75
2022-12-08T02:54:56.125Z,93321.97
2022-12-08T03:00:08.732Z,93289.22
2022-12-08T03:05:14.542Z,93329.63
2022-12-08T03:10:25.949Z,93336.50
2022-12-08T03:15:29.290Z,93306.50
2022-12-08T03:20:34.087Z,93292.34
2022-12-08T03:25:45.394Z,93262.66
2022-12-08T03:30:49.818Z,93235.88
2022-12-08T03:35:52.633Z,93248.66
2022-12-08T03:41:13.450Z,93189.25
2022-12-08T03:51:23.323Z,93213.69
2022-12-08T03:56:27.157Z,93214.22
2022-12-08T04:01:30.299Z,93209.78
2022-12-08T04:06:33.067Z,93228.38
2022-12-08T04:11:35.396Z,93221.97
2022-12-08T04:16:38.809Z,93206.03
2022-12-08T04:21:41.281Z,93193.66
2022-12-08T04:26:43.463Z,93200.34
2022-12-08T04:31:49.784Z,93179.41
2022-12-08T04:36:52.191Z,93164.16
2022-12-08T04:41:55.542Z,93154.69
2022-12-08T04:46:57.814Z,93135.19
2022-12-08T04:52:03.211Z,93141.75
2022-12-08T04:57:06.411Z,93142.84
2022-12-08T05:02:10.121Z,93150.78
2022-12-08T05:07:12.503Z,93159.09
2022-12-08T05:12:14.675Z,93141.06
2022-12-08T05:17:19.247Z,93155.13
2022-12-08T05:22:21.748Z,93146.38
2022-12-08T05:27:25.856Z,93139.59
2022-12-08T05:32:28.781Z,93143.94
2022-12-08T05:37:30.914Z,93135.06
2022-12-08T05:42:33.157Z,93112.50
2022-12-08T05:47:36.400Z,93115.81
2022-12-08T05:52:39.048Z,93106.66
2022-12-08T05:57:41.990Z,93085.06
2022-12-08T06:02:44.318Z,93085.94
2022-12-08T06:07:47.139Z,93088.59
2022-12-08T06:12:54.462Z,93091.09
2022-12-08T06:17:58.030Z,93089.28
2022-12-08T06:23:00.121Z,93078.66
2022-12-08T06:28:02.292Z,93091.41
2022-12-08T06:33:04.702Z,93051.44
2022-12-08T06:38:07.062Z,93082.66
2022-12-08T06:43:09.284Z,93079.56
2022-12-08T06:48:11.662Z,93082.34
2022-12-08T06:53:16.032Z,93089.44
2022-12-08T06:58:19.235Z,93079.91
2022-12-08T07:03:21.445Z,93088.75
2022-12-08T07:08:23.734Z,93099.38
2022-12-08T07:13:26.506Z,93077.75
2022-12-08T07:18:29.203Z,93086.50
2022-12-08T07:23:31.614Z,93091.69
2022-12-08T07:28:36.380Z,93078.97
2022-12-08T07:33:38.637Z,93082.97
2022-12-08T07:38:40.881Z,93040.72
2022-12-08T07:43:43.252Z,93072.03
2022-12-08T07:48:46.528Z,93061.38
2022-12-08T07:53:54.169Z,93072.66
2022-12-08T07:58:57.311Z,93044.91
2022-12-08T08:04:05.516Z,93090.34
2022-12-08T08:09:09.533Z,93084.28
2022-12-08T08:14:12.163Z,93071.31
2022-12-08T08:19:15.246Z,93095.13
2022-12-08T08:24:18.031Z,93067.69
2022-12-08T08:29:20.382Z,93077.97
2022-12-08T08:34:22.371Z,93054.84
2022-12-08T08:39:24.642Z,93041.25
2022-12-08T08:44:26.744Z,93046.03
2022-12-08T08:49:29.189Z,93025.47
2022-12-08T08:54:32.141Z,93004.69
2022-12-08T08:59:34.476Z,93002.25
2022-12-08T09:04:37.014Z,93014.41
2022-12-08T09:09:47.090Z,93001.47
2022-12-08T09:14:49.070Z,93000.78
2022-12-08T09:19:51.395Z,92991.41
2022-12-08T09:24:53.617Z,93014.09
2022-12-08T09:29:57.938Z,93014.63
2022-12-08T09:35:00.699Z,93005.56
2022-12-08T09:40:03.432Z,93004.22
2022-12-08T09:45:10.305Z,93008.94
2022-12-08T09:50:34.161Z,93011.03
2022-12-08T09:55:57.222Z,93000.59
2022-12-08T10:00:59.851Z,92988.19
2022-12-08T10:06:20.702Z,92978.47
2022-12-08T10:11:41.107Z,92990.84
2022-12-08T10:16:46.472Z,93013.28
2022-12-08T10:21:49.374Z,92972.34
2022-12-08T10:26:51.592Z,92988.91
2022-12-08T10:31:54.012Z,92973.03
2022-12-08T10:36:58.572Z,92976.56
2022-12-08T10:42:07.938Z,92953.34
2022-12-08T10:47:13.903Z,92947.53
2022-12-08T10:52:24.345Z,92932.19
2022-12-08T10:57:26.639Z,92917.09
2022-12-08T11:02:29.266Z,92919.19
2022-12-08T11:07:31.812Z,92902.94
2022-12-08T11:12:36.434Z,92854.31
2022-12-08T11:17:41.760Z,92877.03
2022-12-08T11:22:57.217Z,92884.41
2022-12-08T11:28:01.444Z,92870.22
2022-12-08T11:33:15.794Z,92870.91
2022-12-08T11:38:24.081Z,92863.78
2022-12-08T11:43:36.218Z,92861.53
2022-12-08T11:49:05.595Z,92848.53
2022-12-08T11:54:28.769Z,92819.19
2022-12-08T11:59:34.743Z,92791.00
2022-12-08T12:05:03.534Z,92831.84
2022-12-08T12:10:28.891Z,92828.63
2022-12-08T12:16:06.070Z,92832.25
2022-12-08T12:21:19.496Z,92823.56
2022-12-08T12:26:27.142Z,92821.34
2022-12-08T12:31:34.478Z,92802.47
2022-12-08T12:37:10.941Z,92804.34
2022-12-08T12:42:35.792Z,92807.22
2022-12-08T12:47:54.098Z,92793.19
2022-12-08T12:53:00.666Z,92814.38
2022-12-08T12:58:29.007Z,92793.81
2022-12-08T13:03:39.081Z,92775.69
2022-12-08T13:08:51.162Z,92749.22
2022-12-08T13:14:04.851Z,92759.63
2022-12-08T13:19:16.789Z,92769.13
2022-12-08T13:24:34.566Z,92678.06
2022-12-08T13:29:38.851Z,92737.34
2022-12-08T13:34:46.570Z,92713.88
2022-12-08T13:39:54.354Z,92722.53
2022-12-08T13:45:59.084Z,92721.25
2022-12-08T13:52:37.044Z,92710.19
2022-12-08T14:01:25.273Z,92682.59
2022-12-08T14:06:39.095Z,92689.03
2022-12-08T14:11:48.099Z,92682.91
2022-12-08T14:16:58.221Z,92677.09
2022-12-08T14:22:13.206Z,92689.53
2022-12-08T14:27:22.022Z,92706.66
2022-12-08T14:32:30.958Z,92711.16
2022-12-08T14:37:38.714Z,92714.53
2022-12-08T14:42:48.818Z,92702.75
2022-12-08T14:47:53.797Z,92704.94
2022-12-08T14:53:02.399Z,92686.50
2022-12-08T14:58:05.684Z,92672.56
2022-12-08T15:03:08.529Z,92665.31
2022-12-08T15:08:15.336Z,92664.31
2022-12-08T15:13:20.193Z,92617.97
2022-12-08T15:18:42.540Z,92647.69
2022-12-08T15:23:48.809Z,92641.63
2022-12-08T15:28:51.190Z,92636.28
2022-12-08T15:33:53.482Z,92644.72
2022-12-08T15:38:55.917Z,92612.88
2022-12-08T15:43:58.267Z,92644.44
2022-12-08T15:49:00.896Z,92635.09
2022-12-08T15:54:03.324Z,92645.59
2022-12-08T15:59:05.878Z,92638.47
2022-12-08T16:09:39.259Z,92652.53
2022-12-08T16:15:47.281Z,92671.19
2022-12-08T16:20:18.356Z,92617.53
2022-12-08T16:25:22.679Z,92683.53
2022-12-08T16:30:25.676Z,92684.19
2022-12-08T16:35:28.421Z,92692.53
2022-12-08T16:40:31.413Z,92686.81
2022-12-08T16:45:40.041Z,92690.13
2022-12-08T16:50:47.430Z,92677.88
2022-12-08T16:55:50.683Z,92693.09
2022-12-08T17:00:53.731Z,92712.16
2022-12-08T17:05:57.106Z,92736.44
2022-12-08T17:11:09.688Z,92763.81
2022-12-08T17:16:16.182Z,92767.94
2022-12-08T17:21:19.074Z,92760.22
2022-12-08T17:26:21.977Z,92747.94
2022-12-08T17:31:29.383Z,92725.75
2022-12-08T17:36:32.526Z,92704.66
2022-12-08T17:41:35.572Z,92740.72
2022-12-08T17:46:42.695Z,92736.09
2022-12-08T17:51:51.011Z,92702.97
2022-12-08T17:56:54.337Z,92672.56
2022-12-08T18:01:58.335Z,92634.88
2022-12-08T18:07:01.623Z,92630.53
2022-12-08T18:12:04.401Z,92625.16
2022-12-08T18:17:07.116Z,92638.97
2022-12-08T18:22:11.326Z,92668.09
2022-12-08T18:27:23.727Z,92685.19
2022-12-08T18:32:29.661Z,92689.25
2022-12-08T18:37:33.247Z,92694.41
2022-12-08T18:42:38.085Z,92714.50
2022-12-08T18:47:41.596Z,92712.13
2022-12-08T18:52:45.806Z,92705.06
2022-12-08T18:57:48.501Z,92707.63
2022-12-08T19:02:51.123Z,92714.00
2022-12-08T19:07:57.712Z,92706.41
2022-12-08T19:13:01.927Z,92732.66
2022-12-08T19:18:04.544Z,92751.25
2022-12-08T19:23:06.800Z,92753.31
2022-12-08T19:28:09.372Z,92707.97
2022-12-08T19:33:14.056Z,92740.41
2022-12-08T19:38:17.646Z,92764.00
2022-12-08T19:43:33.797Z,92738.91
2022-12-08T19:48:36.723Z,92734.53
2022-12-08T19:53:45.855Z,92777.31
2022-12-08T19:58:50.425Z,92791.38
2022-12-08T20:04:00.533Z,92782.47
2022-12-08T20:09:10.281Z,92788.03
2022-12-08T20:14:14.098Z,92797.81
2022-12-08T20:19:16.778Z,92801.59
2022-12-08T20:24:20.624Z,92796.19
2022-12-08T20:29:23.030Z,92799.34
2022-12-08T20:34:26.950Z,92794.28
2022-12-08T20:39:30.868Z,92800.28
2022-12-08T20:44:36.197Z,92790.72
2022-12-08T20:49:41.202Z,92800.72
2022-12-08T20:54:43.651Z,92776.44
2022-12-08T20:59:46.632Z,92765.50
2022-12-08T21:04:57.932Z,92766.69
2022-12-08T21:10:00.588Z,92763.84
2022-12-08T21:15:10.495Z,92788.13
2022-12-08T21:20:13.349Z,92780.06
2022-12-08T21:25:18.166Z,92822.25
2022-12-08T21:30:21.494Z,92818.13
2022-12-08T21:35:25.210Z,92815.22
2022-12-08T21:40:30.556Z,92812.63
2022-12-08T21:45:34.677Z,92813.06
2022-12-08T21:50:40.487Z,92816.06
2022-12-08T21:55:46.224Z,92821.41
2022-12-08T22:00:49.347Z,92832.81
2022-12-08T22:05:51.801Z,92848.75
2022-12-08T22:10:55.219Z,92843.06
2022-12-08T22:15:59.140Z,92837.59
2022-12-08T22:21:02.955Z,92850.97
2022-12-08T22:26:06.728Z,92852.19
2022-12-08T22:31:21.809Z,92862.38
2022-12-08T22:36:39.854Z,92864.34
2022-12-08T22:41:42.112Z,92867.00
2022-12-08T22:46:44.792Z,92863.22
2022-12-08T22:51:47.902Z,92868.22
2022-12-08T22:56:50.367Z,92856.38
2022-12-08T23:01:54.349Z,92849.25
2022-12-08T23:06:56.767Z,92838.28
2022-12-08T23:11:59.550Z,92813.56
2022-12-08T23:17:02.015Z,92841.97
2022-12-08T23:22:04.505Z,92860.47
2022-12-08T23:27:06.908Z,92849.78
2022-12-08T23:32:09.548Z,92843.34
2022-12-08T23:37:12.232Z,92834.84
2022-12-08T23:42:14.851Z,92825.91
2022-12-08T23:47:17.473Z,92832.44
2022-12-08T23:52:20.381Z,92824.47
